sensor_id;sensor_type;location;lat;lon;timestamp;P1;durP1;ratioP1;P2;durP2;ratioP2
3563;SDS011;1796;52.388;13.096;2023-04-10T00:00:48;71.00;;;34.97;;
3563;SDS011;1796;52.388;13.096;2023-04-10T00:03:21;73.80;;;33.73;;
3563;SDS011;1796;52.388;13.096;2023-04-10T00:05:49;78.80;;;36.13;;
3563;SDS011;1796;52.388;13.096;2023-04-10T00:08:18;82.10;;;37.17;;
3563;SDS011;1796;52.388;13.096;2023-04-10T00:10:45;91.80;;;38.93;;
3563;SDS011;1796;52.388;13.096;2023-04-10T00:13:13;81.93;;;38.57;;
3563;SDS011;1796;52.388;13.096;2023-04-10T00:15:39;71.40;;;37.53;;
3563;SDS011;1796;52.388;13.096;2023-04-10T00:18:06;80.80;;;37.47;;
3563;SDS011;1796;52.388;13.096;2023-04-10T00:20:33;91.23;;;40.97;;
3563;SDS011;1796;52.388;13.096;2023-04-10T00:23:01;72.40;;;37.43;;
3563;SDS011;1796;52.388;13.096;2023-04-10T00:25:28;78.77;;;37.87;;
3563;SDS011;1796;52.388;13.096;2023-04-10T00:27:55;81.73;;;36.07;;
3563;SDS011;1796;52.388;13.096;2023-04-10T00:30:22;83.20;;;36.73;;
3563;SDS011;1796;52.388;13.096;2023-04-10T00:32:49;71.60;;;34.63;;
3563;SDS011;1796;52.388;13.096;2023-04-10T00:35:16;74.00;;;34.60;;
3563;SDS011;1796;52.388;13.096;2023-04-10T00:37:43;66.07;;;35.83;;
3563;SDS011;1796;52.388;13.096;2023-04-10T00:40:11;75.70;;;35.30;;
3563;SDS011;1796;52.388;13.096;2023-04-10T00:42:38;65.00;;;33.00;;
3563;SDS011;1796;52.388;13.096;2023-04-10T00:45:05;69.17;;;34.17;;
3563;SDS011;1796;52.388;13.096;2023-04-10T00:47:33;76.83;;;34.30;;
3563;SDS011;1796;52.388;13.096;2023-04-10T00:50:00;65.53;;;32.57;;
3563;SDS011;1796;52.388;13.096;2023-04-10T00:52:27;77.87;;;32.93;;
3563;SDS011;1796;52.388;13.096;2023-04-10T00:54:54;73.43;;;31.87;;
3563;SDS011;1796;52.388;13.096;2023-04-10T00:57:22;65.83;;;32.07;;
3563;SDS011;1796;52.388;13.096;2023-04-10T00:59:51;65.10;;;31.80;;
3563;SDS011;1796;52.388;13.096;2023-04-10T01:02:18;73.63;;;31.93;;
3563;SDS011;1796;52.388;13.096;2023-04-10T01:04:45;66.40;;;31.53;;
3563;SDS011;1796;52.388;13.096;2023-04-10T01:07:14;53.53;;;29.40;;
3563;SDS011;1796;52.388;13.096;2023-04-10T01:09:51;61.17;;;29.77;;
3563;SDS011;1796;52.388;13.096;2023-04-10T01:12:32;57.10;;;27.60;;
3563;SDS011;1796;52.388;13.096;2023-04-10T01:15:14;62.70;;;30.00;;
3563;SDS011;1796;52.388;13.096;2023-04-10T01:17:45;49.80;;;28.03;;
3563;SDS011;1796;52.388;13.096;2023-04-10T01:20:18;58.73;;;28.43;;
3563;SDS011;1796;52.388;13.096;2023-04-10T01:23:02;51.20;;;29.30;;
3563;SDS011;1796;52.388;13.096;2023-04-10T01:25:38;60.63;;;28.93;;
3563;SDS011;1796;52.388;13.096;2023-04-10T01:28:19;56.20;;;29.30;;
3563;SDS011;1796;52.388;13.096;2023-04-10T01:30:56;56.77;;;27.47;;
3563;SDS011;1796;52.388;13.096;2023-04-10T01:33:28;57.93;;;27.70;;
3563;SDS011;1796;52.388;13.096;2023-04-10T01:35:59;57.67;;;28.60;;
3563;SDS011;1796;52.388;13.096;2023-04-10T01:38:30;52.90;;;27.83;;
3563;SDS011;1796;52.388;13.096;2023-04-10T01:40:58;50.30;;;26.73;;
3563;SDS011;1796;52.388;13.096;2023-04-10T01:43:26;53.50;;;27.47;;
3563;SDS011;1796;52.388;13.096;2023-04-10T01:45:57;51.57;;;27.30;;
3563;SDS011;1796;52.388;13.096;2023-04-10T01:48:26;46.23;;;25.93;;
3563;SDS011;1796;52.388;13.096;2023-04-10T01:50:54;50.53;;;26.30;;
3563;SDS011;1796;52.388;13.096;2023-04-10T01:53:21;50.10;;;26.53;;
3563;SDS011;1796;52.388;13.096;2023-04-10T01:55:49;56.63;;;30.17;;
3563;SDS011;1796;52.388;13.096;2023-04-10T01:58:17;56.83;;;29.90;;
3563;SDS011;1796;52.388;13.096;2023-04-10T02:00:44;52.20;;;27.27;;
3563;SDS011;1796;52.388;13.096;2023-04-10T02:03:12;52.43;;;27.60;;
3563;SDS011;1796;52.388;13.096;2023-04-10T02:05:43;56.00;;;27.63;;
3563;SDS011;1796;52.388;13.096;2023-04-10T02:08:19;56.27;;;26.53;;
3563;SDS011;1796;52.388;13.096;2023-04-10T02:10:53;52.50;;;27.30;;
3563;SDS011;1796;52.388;13.096;2023-04-10T02:13:23;56.67;;;24.90;;
3563;SDS011;1796;52.388;13.096;2023-04-10T02:15:54;57.23;;;28.43;;
3563;SDS011;1796;52.388;13.096;2023-04-10T02:18:24;51.47;;;26.30;;
3563;SDS011;1796;52.388;13.096;2023-04-10T02:20:52;46.00;;;25.93;;
3563;SDS011;1796;52.388;13.096;2023-04-10T02:23:19;57.00;;;26.77;;
3563;SDS011;1796;52.388;13.096;2023-04-10T02:25:47;50.80;;;27.33;;
3563;SDS011;1796;52.388;13.096;2023-04-10T02:28:14;53.90;;;26.00;;
3563;SDS011;1796;52.388;13.096;2023-04-10T02:30:41;58.00;;;27.20;;
3563;SDS011;1796;52.388;13.096;2023-04-10T02:33:08;61.33;;;27.33;;
3563;SDS011;1796;52.388;13.096;2023-04-10T02:35:36;57.50;;;29.30;;
3563;SDS011;1796;52.388;13.096;2023-04-10T02:38:03;60.13;;;28.77;;
3563;SDS011;1796;52.388;13.096;2023-04-10T02:40:29;73.30;;;32.20;;
3563;SDS011;1796;52.388;13.096;2023-04-10T02:42:56;58.40;;;30.60;;
3563;SDS011;1796;52.388;13.096;2023-04-10T02:45:23;59.80;;;29.40;;
3563;SDS011;1796;52.388;13.096;2023-04-10T02:47:50;68.20;;;27.60;;
3563;SDS011;1796;52.388;13.096;2023-04-10T02:50:17;57.83;;;28.00;;
3563;SDS011;1796;52.388;13.096;2023-04-10T02:52:45;56.80;;;28.40;;
3563;SDS011;1796;52.388;13.096;2023-04-10T02:55:12;55.50;;;27.97;;
3563;SDS011;1796;52.388;13.096;2023-04-10T02:57:39;52.30;;;28.50;;
3563;SDS011;1796;52.388;13.096;2023-04-10T03:00:07;59.90;;;28.57;;
3563;SDS011;1796;52.388;13.096;2023-04-10T03:02:34;57.87;;;29.33;;
3563;SDS011;1796;52.388;13.096;2023-04-10T03:05:01;55.87;;;28.20;;
3563;SDS011;1796;52.388;13.096;2023-04-10T03:07:28;74.90;;;34.43;;
3563;SDS011;1796;52.388;13.096;2023-04-10T03:09:57;107.57;;;42.20;;
3563;SDS011;1796;52.388;13.096;2023-04-10T03:12:24;98.10;;;38.30;;
3563;SDS011;1796;52.388;13.096;2023-04-10T03:14:51;99.07;;;38.47;;
3563;SDS011;1796;52.388;13.096;2023-04-10T03:17:18;116.40;;;40.20;;
3563;SDS011;1796;52.388;13.096;2023-04-10T03:19:45;98.10;;;38.03;;
3563;SDS011;1796;52.388;13.096;2023-04-10T03:22:11;74.50;;;34.07;;
3563;SDS011;1796;52.388;13.096;2023-04-10T03:24:38;77.53;;;30.47;;
3563;SDS011;1796;52.388;13.096;2023-04-10T03:27:07;72.70;;;30.50;;
3563;SDS011;1796;52.388;13.096;2023-04-10T03:29:34;64.73;;;29.97;;
3563;SDS011;1796;52.388;13.096;2023-04-10T03:32:01;62.37;;;28.73;;
3563;SDS011;1796;52.388;13.096;2023-04-10T03:37:01;57.03;;;27.03;;
3563;SDS011;1796;52.388;13.096;2023-04-10T03:39:28;63.10;;;27.90;;
3563;SDS011;1796;52.388;13.096;2023-04-10T03:41:55;67.33;;;28.80;;
3563;SDS011;1796;52.388;13.096;2023-04-10T03:44:23;57.03;;;26.23;;
3563;SDS011;1796;52.388;13.096;2023-04-10T03:46:51;69.97;;;28.77;;
3563;SDS011;1796;52.388;13.096;2023-04-10T03:49:18;62.80;;;29.67;;
3563;SDS011;1796;52.388;13.096;2023-04-10T03:51:44;63.23;;;29.07;;
3563;SDS011;1796;52.388;13.096;2023-04-10T03:54:11;77.57;;;29.80;;
3563;SDS011;1796;52.388;13.096;2023-04-10T03:56:38;66.77;;;29.50;;
3563;SDS011;1796;52.388;13.096;2023-04-10T03:59:05;67.97;;;28.83;;
3563;SDS011;1796;52.388;13.096;2023-04-10T04:01:33;67.70;;;29.23;;
3563;SDS011;1796;52.388;13.096;2023-04-10T04:04:00;75.83;;;29.30;;
3563;SDS011;1796;52.388;13.096;2023-04-10T04:06:27;77.57;;;30.20;;
3563;SDS011;1796;52.388;13.096;2023-04-10T04:08:53;81.33;;;32.30;;
3563;SDS011;1796;52.388;13.096;2023-04-10T04:11:20;78.83;;;31.80;;
3563;SDS011;1796;52.388;13.096;2023-04-10T04:13:47;84.77;;;30.93;;
3563;SDS011;1796;52.388;13.096;2023-04-10T04:16:14;81.67;;;32.80;;
3563;SDS011;1796;52.388;13.096;2023-04-10T04:18:42;86.70;;;32.80;;
3563;SDS011;1796;52.388;13.096;2023-04-10T04:21:09;93.70;;;35.37;;
3563;SDS011;1796;52.388;13.096;2023-04-10T04:23:36;84.23;;;33.67;;
3563;SDS011;1796;52.388;13.096;2023-04-10T04:26:03;90.70;;;33.80;;
3563;SDS011;1796;52.388;13.096;2023-04-10T04:28:31;75.83;;;32.50;;
3563;SDS011;1796;52.388;13.096;2023-04-10T04:30:57;77.87;;;33.33;;
3563;SDS011;1796;52.388;13.096;2023-04-10T04:33:24;80.07;;;31.70;;
3563;SDS011;1796;52.388;13.096;2023-04-10T04:35:53;74.73;;;31.10;;
3563;SDS011;1796;52.388;13.096;2023-04-10T04:38:19;100.00;;;34.27;;
3563;SDS011;1796;52.388;13.096;2023-04-10T04:40:46;99.30;;;31.73;;
3563;SDS011;1796;52.388;13.096;2023-04-10T04:43:13;88.30;;;33.00;;
3563;SDS011;1796;52.388;13.096;2023-04-10T04:45:40;87.57;;;34.13;;
3563;SDS011;1796;52.388;13.096;2023-04-10T04:48:07;95.63;;;32.57;;
3563;SDS011;1796;52.388;13.096;2023-04-10T04:50:33;88.30;;;33.67;;
3563;SDS011;1796;52.388;13.096;2023-04-10T04:53:01;101.50;;;31.63;;
3563;SDS011;1796;52.388;13.096;2023-04-10T04:55:28;87.47;;;32.47;;
3563;SDS011;1796;52.388;13.096;2023-04-10T04:57:55;69.10;;;29.50;;
3563;SDS011;1796;52.388;13.096;2023-04-10T05:00:22;102.13;;;35.20;;
3563;SDS011;1796;52.388;13.096;2023-04-10T05:02:49;105.30;;;35.50;;
3563;SDS011;1796;52.388;13.096;2023-04-10T05:05:15;102.23;;;33.60;;
3563;SDS011;1796;52.388;13.096;2023-04-10T05:07:42;90.50;;;33.27;;
3563;SDS011;1796;52.388;13.096;2023-04-10T05:10:11;83.67;;;34.40;;
3563;SDS011;1796;52.388;13.096;2023-04-10T05:12:38;86.37;;;34.53;;
3563;SDS011;1796;52.388;13.096;2023-04-10T05:15:06;92.37;;;33.43;;
3563;SDS011;1796;52.388;13.096;2023-04-10T05:17:33;66.73;;;29.40;;
3563;SDS011;1796;52.388;13.096;2023-04-10T05:20:00;88.67;;;31.20;;
3563;SDS011;1796;52.388;13.096;2023-04-10T05:22:27;76.03;;;32.53;;
3563;SDS011;1796;52.388;13.096;2023-04-10T05:24:54;79.53;;;26.53;;
3563;SDS011;1796;52.388;13.096;2023-04-10T05:27:22;76.23;;;27.00;;
3563;SDS011;1796;52.388;13.096;2023-04-10T05:29:50;70.23;;;28.90;;
3563;SDS011;1796;52.388;13.096;2023-04-10T05:32:17;92.43;;;28.00;;
3563;SDS011;1796;52.388;13.096;2023-04-10T05:34:43;70.90;;;30.53;;
3563;SDS011;1796;52.388;13.096;2023-04-10T05:37:10;85.23;;;29.43;;
3563;SDS011;1796;52.388;13.096;2023-04-10T05:39:37;72.93;;;27.93;;
3563;SDS011;1796;52.388;13.096;2023-04-10T05:42:04;59.93;;;27.10;;
3563;SDS011;1796;52.388;13.096;2023-04-10T05:44:32;83.70;;;28.27;;
3563;SDS011;1796;52.388;13.096;2023-04-10T05:46:59;60.23;;;28.00;;
3563;SDS011;1796;52.388;13.096;2023-04-10T05:49:26;56.50;;;25.93;;
3563;SDS011;1796;52.388;13.096;2023-04-10T05:51:53;49.63;;;25.57;;
3563;SDS011;1796;52.388;13.096;2023-04-10T05:54:19;52.73;;;26.57;;
3563;SDS011;1796;52.388;13.096;2023-04-10T05:56:46;69.47;;;25.87;;
3563;SDS011;1796;52.388;13.096;2023-04-10T05:59:15;71.73;;;28.97;;
3563;SDS011;1796;52.388;13.096;2023-04-10T06:01:44;62.40;;;27.63;;
3563;SDS011;1796;52.388;13.096;2023-04-10T06:04:12;79.77;;;30.00;;
3563;SDS011;1796;52.388;13.096;2023-04-10T06:06:38;82.17;;;32.53;;
3563;SDS011;1796;52.388;13.096;2023-04-10T06:09:05;56.93;;;28.83;;
3563;SDS011;1796;52.388;13.096;2023-04-10T06:11:32;56.23;;;27.00;;
3563;SDS011;1796;52.388;13.096;2023-04-10T06:13:59;69.73;;;26.67;;
3563;SDS011;1796;52.388;13.096;2023-04-10T06:16:26;46.30;;;24.10;;
3563;SDS011;1796;52.388;13.096;2023-04-10T06:18:54;41.27;;;22.50;;
3563;SDS011;1796;52.388;13.096;2023-04-10T06:21:21;39.47;;;21.07;;
3563;SDS011;1796;52.388;13.096;2023-04-10T06:23:48;38.33;;;21.30;;
3563;SDS011;1796;52.388;13.096;2023-04-10T06:26:15;41.47;;;21.10;;
3563;SDS011;1796;52.388;13.096;2023-04-10T06:28:42;46.43;;;19.37;;
3563;SDS011;1796;52.388;13.096;2023-04-10T06:31:09;50.00;;;18.67;;
3563;SDS011;1796;52.388;13.096;2023-04-10T06:33:36;29.27;;;17.50;;
3563;SDS011;1796;52.388;13.096;2023-04-10T06:36:04;26.13;;;15.93;;
3563;SDS011;1796;52.388;13.096;2023-04-10T06:38:32;35.67;;;17.07;;
3563;SDS011;1796;52.388;13.096;2023-04-10T06:41:01;40.60;;;18.53;;
3563;SDS011;1796;52.388;13.096;2023-04-10T06:43:29;43.60;;;20.13;;
3563;SDS011;1796;52.388;13.096;2023-04-10T06:45:57;41.90;;;21.60;;
3563;SDS011;1796;52.388;13.096;2023-04-10T06:48:24;44.77;;;21.70;;
3563;SDS011;1796;52.388;13.096;2023-04-10T06:50:51;59.40;;;21.00;;
3563;SDS011;1796;52.388;13.096;2023-04-10T06:53:19;37.13;;;22.07;;
3563;SDS011;1796;52.388;13.096;2023-04-10T06:55:46;40.57;;;18.83;;
3563;SDS011;1796;52.388;13.096;2023-04-10T06:58:13;28.00;;;18.07;;
3563;SDS011;1796;52.388;13.096;2023-04-10T07:00:40;34.40;;;20.07;;
3563;SDS011;1796;52.388;13.096;2023-04-10T07:03:07;36.77;;;20.13;;
3563;SDS011;1796;52.388;13.096;2023-04-10T07:05:34;33.37;;;19.83;;
3563;SDS011;1796;52.388;13.096;2023-04-10T07:08:00;41.33;;;20.20;;
3563;SDS011;1796;52.388;13.096;2023-04-10T07:10:29;40.30;;;19.50;;
3563;SDS011;1796;52.388;13.096;2023-04-10T07:12:55;34.77;;;19.77;;
3563;SDS011;1796;52.388;13.096;2023-04-10T07:15:23;40.27;;;21.27;;
3563;SDS011;1796;52.388;13.096;2023-04-10T07:17:49;38.63;;;21.40;;
3563;SDS011;1796;52.388;13.096;2023-04-10T07:20:16;36.13;;;21.67;;
3563;SDS011;1796;52.388;13.096;2023-04-10T07:22:43;34.23;;;20.40;;
3563;SDS011;1796;52.388;13.096;2023-04-10T07:25:10;35.80;;;20.43;;
3563;SDS011;1796;52.388;13.096;2023-04-10T07:27:39;34.73;;;21.70;;
3563;SDS011;1796;52.388;13.096;2023-04-10T07:30:06;36.10;;;21.40;;
3563;SDS011;1796;52.388;13.096;2023-04-10T07:32:34;36.83;;;21.47;;
3563;SDS011;1796;52.388;13.096;2023-04-10T07:35:04;38.07;;;22.80;;
3563;SDS011;1796;52.388;13.096;2023-04-10T07:37:31;43.00;;;23.63;;
3563;SDS011;1796;52.388;13.096;2023-04-10T07:39:58;35.90;;;22.43;;
3563;SDS011;1796;52.388;13.096;2023-04-10T07:42:26;37.67;;;21.70;;
3563;SDS011;1796;52.388;13.096;2023-04-10T07:44:54;38.40;;;22.53;;
3563;SDS011;1796;52.388;13.096;2023-04-10T07:47:21;30.50;;;21.03;;
3563;SDS011;1796;52.388;13.096;2023-04-10T07:49:48;33.00;;;21.13;;
3563;SDS011;1796;52.388;13.096;2023-04-10T07:52:14;33.90;;;23.00;;
3563;SDS011;1796;52.388;13.096;2023-04-10T07:54:41;31.63;;;21.23;;
3563;SDS011;1796;52.388;13.096;2023-04-10T07:57:08;30.57;;;20.30;;
3563;SDS011;1796;52.388;13.096;2023-04-10T07:59:35;34.30;;;23.30;;
3563;SDS011;1796;52.388;13.096;2023-04-10T08:02:03;34.53;;;23.67;;
3563;SDS011;1796;52.388;13.096;2023-04-10T08:04:30;36.17;;;20.77;;
3563;SDS011;1796;52.388;13.096;2023-04-10T08:06:57;30.70;;;20.03;;
3563;SDS011;1796;52.388;13.096;2023-04-10T08:09:24;33.90;;;21.80;;
3563;SDS011;1796;52.388;13.096;2023-04-10T08:11:51;33.20;;;21.20;;
3563;SDS011;1796;52.388;13.096;2023-04-10T08:14:17;29.30;;;21.30;;
3563;SDS011;1796;52.388;13.096;2023-04-10T08:16:44;38.43;;;25.40;;
3563;SDS011;1796;52.388;13.096;2023-04-10T08:19:12;30.03;;;21.43;;
3563;SDS011;1796;52.388;13.096;2023-04-10T08:21:39;36.93;;;24.30;;
3563;SDS011;1796;52.388;13.096;2023-04-10T08:24:06;39.77;;;23.87;;
3563;SDS011;1796;52.388;13.096;2023-04-10T08:26:33;33.07;;;23.80;;
3563;SDS011;1796;52.388;13.096;2023-04-10T08:29:00;35.80;;;25.40;;
3563;SDS011;1796;52.388;13.096;2023-04-10T08:31:27;39.30;;;25.63;;
3563;SDS011;1796;52.388;13.096;2023-04-10T08:33:54;38.90;;;24.80;;
3563;SDS011;1796;52.388;13.096;2023-04-10T08:36:22;34.60;;;23.10;;
3563;SDS011;1796;52.388;13.096;2023-04-10T08:38:51;44.03;;;27.83;;
3563;SDS011;1796;52.388;13.096;2023-04-10T08:41:18;44.00;;;26.23;;
3563;SDS011;1796;52.388;13.096;2023-04-10T08:43:45;38.00;;;25.00;;
3563;SDS011;1796;52.388;13.096;2023-04-10T08:46:14;34.37;;;23.70;;
3563;SDS011;1796;52.388;13.096;2023-04-10T08:48:44;46.60;;;27.10;;
3563;SDS011;1796;52.388;13.096;2023-04-10T08:51:13;37.87;;;23.43;;
3563;SDS011;1796;52.388;13.096;2023-04-10T08:53:45;40.43;;;25.10;;
3563;SDS011;1796;52.388;13.096;2023-04-10T08:56:16;36.87;;;23.17;;
3563;SDS011;1796;52.388;13.096;2023-04-10T08:58:44;32.70;;;21.63;;
3563;SDS011;1796;52.388;13.096;2023-04-10T09:01:12;56.33;;;32.00;;
3563;SDS011;1796;52.388;13.096;2023-04-10T09:03:39;39.70;;;25.10;;
3563;SDS011;1796;52.388;13.096;2023-04-10T09:06:06;42.77;;;23.60;;
3563;SDS011;1796;52.388;13.096;2023-04-10T09:08:34;49.23;;;25.30;;
3563;SDS011;1796;52.388;13.096;2023-04-10T09:11:03;40.03;;;23.43;;
3563;SDS011;1796;52.388;13.096;2023-04-10T09:13:34;37.80;;;21.73;;
3563;SDS011;1796;52.388;13.096;2023-04-10T09:16:03;39.20;;;20.70;;
3563;SDS011;1796;52.388;13.096;2023-04-10T09:18:43;33.07;;;20.50;;
3563;SDS011;1796;52.388;13.096;2023-04-10T09:21:12;30.60;;;19.13;;
3563;SDS011;1796;52.388;13.096;2023-04-10T09:23:41;27.03;;;18.57;;
3563;SDS011;1796;52.388;13.096;2023-04-10T09:26:22;25.07;;;17.20;;
3563;SDS011;1796;52.388;13.096;2023-04-10T09:29:00;26.37;;;18.03;;
3563;SDS011;1796;52.388;13.096;2023-04-10T09:31:28;31.23;;;18.80;;
3563;SDS011;1796;52.388;13.096;2023-04-10T09:34:05;32.47;;;18.80;;
3563;SDS011;1796;52.388;13.096;2023-04-10T09:36:33;26.93;;;18.20;;
3563;SDS011;1796;52.388;13.096;2023-04-10T09:39:02;26.93;;;17.90;;
3563;SDS011;1796;52.388;13.096;2023-04-10T09:41:30;25.17;;;17.00;;
3563;SDS011;1796;52.388;13.096;2023-04-10T09:44:07;24.27;;;17.20;;
3563;SDS011;1796;52.388;13.096;2023-04-10T09:46:35;27.23;;;17.97;;
3563;SDS011;1796;52.388;13.096;2023-04-10T09:49:03;23.63;;;18.10;;
3563;SDS011;1796;52.388;13.096;2023-04-10T09:51:31;22.73;;;16.40;;
3563;SDS011;1796;52.388;13.096;2023-04-10T09:53:59;24.33;;;16.40;;
3563;SDS011;1796;52.388;13.096;2023-04-10T09:56:27;23.30;;;15.90;;
3563;SDS011;1796;52.388;13.096;2023-04-10T09:58:57;25.83;;;14.63;;
3563;SDS011;1796;52.388;13.096;2023-04-10T10:01:25;22.53;;;14.37;;
3563;SDS011;1796;52.388;13.096;2023-04-10T10:03:54;18.17;;;11.90;;
3563;SDS011;1796;52.388;13.096;2023-04-10T10:06:22;19.03;;;13.97;;
3563;SDS011;1796;52.388;13.096;2023-04-10T10:08:50;19.30;;;12.30;;
3563;SDS011;1796;52.388;13.096;2023-04-10T10:11:18;18.03;;;12.00;;
3563;SDS011;1796;52.388;13.096;2023-04-10T10:13:49;14.87;;;10.90;;
3563;SDS011;1796;52.388;13.096;2023-04-10T10:16:20;14.30;;;10.30;;
3563;SDS011;1796;52.388;13.096;2023-04-10T10:18:52;13.10;;;9.53;;
3563;SDS011;1796;52.388;13.096;2023-04-10T10:21:23;13.30;;;9.83;;
3563;SDS011;1796;52.388;13.096;2023-04-10T10:23:52;12.33;;;9.20;;
3563;SDS011;1796;52.388;13.096;2023-04-10T10:26:22;10.47;;;9.30;;
3563;SDS011;1796;52.388;13.096;2023-04-10T10:28:49;13.43;;;10.47;;
3563;SDS011;1796;52.388;13.096;2023-04-10T10:31:17;14.27;;;10.50;;
3563;SDS011;1796;52.388;13.096;2023-04-10T10:33:46;15.20;;;10.50;;
3563;SDS011;1796;52.388;13.096;2023-04-10T10:36:13;14.00;;;11.07;;
3563;SDS011;1796;52.388;13.096;2023-04-10T10:38:43;13.70;;;10.70;;
3563;SDS011;1796;52.388;13.096;2023-04-10T10:41:20;16.17;;;11.10;;
3563;SDS011;1796;52.388;13.096;2023-04-10T10:43:52;13.03;;;10.90;;
3563;SDS011;1796;52.388;13.096;2023-04-10T10:46:31;12.40;;;9.57;;
3563;SDS011;1796;52.388;13.096;2023-04-10T10:49:03;14.13;;;11.27;;
3563;SDS011;1796;52.388;13.096;2023-04-10T10:51:43;12.50;;;10.07;;
3563;SDS011;1796;52.388;13.096;2023-04-10T10:54:27;13.67;;;10.30;;
3563;SDS011;1796;52.388;13.096;2023-04-10T10:56:58;14.03;;;11.27;;
3563;SDS011;1796;52.388;13.096;2023-04-10T11:02:21;13.13;;;11.70;;
3563;SDS011;1796;52.388;13.096;2023-04-10T11:04:50;13.87;;;11.63;;
3563;SDS011;1796;52.388;13.096;2023-04-10T11:07:17;15.67;;;12.40;;
3563;SDS011;1796;52.388;13.096;2023-04-10T11:09:48;17.43;;;13.27;;
3563;SDS011;1796;52.388;13.096;2023-04-10T11:12:17;15.50;;;12.70;;
3563;SDS011;1796;52.388;13.096;2023-04-10T11:14:55;25.20;;;15.30;;
3563;SDS011;1796;52.388;13.096;2023-04-10T11:20:14;28.70;;;14.77;;
3563;SDS011;1796;52.388;13.096;2023-04-10T11:25:47;20.93;;;14.03;;
3563;SDS011;1796;52.388;13.096;2023-04-10T11:28:34;16.07;;;13.60;;
3563;SDS011;1796;52.388;13.096;2023-04-10T11:31:14;14.33;;;11.93;;
3563;SDS011;1796;52.388;13.096;2023-04-10T11:33:43;17.07;;;12.33;;
3563;SDS011;1796;52.388;13.096;2023-04-10T11:36:14;17.80;;;13.50;;
3563;SDS011;1796;52.388;13.096;2023-04-10T11:38:52;19.37;;;13.20;;
3563;SDS011;1796;52.388;13.096;2023-04-10T11:41:20;18.50;;;12.47;;
3563;SDS011;1796;52.388;13.096;2023-04-10T11:43:50;16.20;;;11.90;;
3563;SDS011;1796;52.388;13.096;2023-04-10T11:46:17;13.27;;;10.97;;
3563;SDS011;1796;52.388;13.096;2023-04-10T11:48:45;14.27;;;11.97;;
3563;SDS011;1796;52.388;13.096;2023-04-10T11:51:13;18.03;;;10.53;;
3563;SDS011;1796;52.388;13.096;2023-04-10T11:53:40;14.30;;;11.40;;
3563;SDS011;1796;52.388;13.096;2023-04-10T11:56:14;16.43;;;12.47;;
3563;SDS011;1796;52.388;13.096;2023-04-10T11:58:42;14.30;;;11.03;;
3563;SDS011;1796;52.388;13.096;2023-04-10T12:01:09;14.87;;;11.50;;
3563;SDS011;1796;52.388;13.096;2023-04-10T12:03:38;12.03;;;10.13;;
3563;SDS011;1796;52.388;13.096;2023-04-10T12:06:07;13.20;;;10.97;;
3563;SDS011;1796;52.388;13.096;2023-04-10T12:08:38;14.93;;;11.43;;
3563;SDS011;1796;52.388;13.096;2023-04-10T12:11:06;14.23;;;10.90;;
3563;SDS011;1796;52.388;13.096;2023-04-10T12:13:33;11.43;;;10.27;;
3563;SDS011;1796;52.388;13.096;2023-04-10T12:16:01;12.53;;;10.57;;
3563;SDS011;1796;52.388;13.096;2023-04-10T12:18:29;10.90;;;9.70;;
3563;SDS011;1796;52.388;13.096;2023-04-10T12:20:57;12.37;;;10.33;;
3563;SDS011;1796;52.388;13.096;2023-04-10T12:23:25;12.23;;;9.90;;
3563;SDS011;1796;52.388;13.096;2023-04-10T12:26:04;13.60;;;9.50;;
3563;SDS011;1796;52.388;13.096;2023-04-10T12:28:36;13.33;;;9.83;;
3563;SDS011;1796;52.388;13.096;2023-04-10T12:31:04;13.30;;;9.93;;
3563;SDS011;1796;52.388;13.096;2023-04-10T12:33:32;10.50;;;8.13;;
3563;SDS011;1796;52.388;13.096;2023-04-10T12:35:59;15.67;;;10.07;;
3563;SDS011;1796;52.388;13.096;2023-04-10T12:38:35;12.33;;;9.37;;
3563;SDS011;1796;52.388;13.096;2023-04-10T12:41:05;11.67;;;9.37;;
3563;SDS011;1796;52.388;13.096;2023-04-10T12:43:33;14.33;;;10.00;;
3563;SDS011;1796;52.388;13.096;2023-04-10T12:46:01;12.00;;;9.03;;
3563;SDS011;1796;52.388;13.096;2023-04-10T12:48:28;11.47;;;8.40;;
3563;SDS011;1796;52.388;13.096;2023-04-10T12:50:55;11.93;;;9.80;;
3563;SDS011;1796;52.388;13.096;2023-04-10T12:53:22;16.50;;;9.83;;
3563;SDS011;1796;52.388;13.096;2023-04-10T12:55:59;10.40;;;8.90;;
3563;SDS011;1796;52.388;13.096;2023-04-10T12:58:29;10.83;;;9.67;;
3563;SDS011;1796;52.388;13.096;2023-04-10T13:01:01;12.00;;;9.00;;
3563;SDS011;1796;52.388;13.096;2023-04-10T13:03:29;11.30;;;9.80;;
3563;SDS011;1796;52.388;13.096;2023-04-10T13:05:56;9.30;;;8.33;;
3563;SDS011;1796;52.388;13.096;2023-04-10T13:08:23;9.60;;;8.60;;
3563;SDS011;1796;52.388;13.096;2023-04-10T13:10:50;9.37;;;8.47;;
3563;SDS011;1796;52.388;13.096;2023-04-10T13:13:17;11.67;;;9.40;;
3563;SDS011;1796;52.388;13.096;2023-04-10T13:15:45;9.80;;;8.60;;
3563;SDS011;1796;52.388;13.096;2023-04-10T13:18:12;12.10;;;9.60;;
3563;SDS011;1796;52.388;13.096;2023-04-10T13:20:40;9.73;;;8.60;;
3563;SDS011;1796;52.388;13.096;2023-04-10T13:23:07;10.30;;;8.80;;
3563;SDS011;1796;52.388;13.096;2023-04-10T13:25:35;11.37;;;9.23;;
3563;SDS011;1796;52.388;13.096;2023-04-10T13:28:04;13.40;;;8.07;;
3563;SDS011;1796;52.388;13.096;2023-04-10T13:30:35;13.37;;;9.00;;
3563;SDS011;1796;52.388;13.096;2023-04-10T13:33:04;11.53;;;9.70;;
3563;SDS011;1796;52.388;13.096;2023-04-10T13:35:31;9.20;;;8.30;;
3563;SDS011;1796;52.388;13.096;2023-04-10T13:37:58;12.00;;;10.27;;
3563;SDS011;1796;52.388;13.096;2023-04-10T13:40:26;18.50;;;12.43;;
3563;SDS011;1796;52.388;13.096;2023-04-10T13:42:53;14.43;;;11.47;;
3563;SDS011;1796;52.388;13.096;2023-04-10T13:45:19;13.70;;;8.67;;
3563;SDS011;1796;52.388;13.096;2023-04-10T13:47:46;11.50;;;10.00;;
3563;SDS011;1796;52.388;13.096;2023-04-10T13:50:14;13.07;;;10.00;;
3563;SDS011;1796;52.388;13.096;2023-04-10T13:52:41;10.97;;;8.60;;
3563;SDS011;1796;52.388;13.096;2023-04-10T13:55:08;10.27;;;8.70;;
3563;SDS011;1796;52.388;13.096;2023-04-10T13:57:35;11.30;;;9.50;;
3563;SDS011;1796;52.388;13.096;2023-04-10T14:00:03;12.77;;;8.60;;
3563;SDS011;1796;52.388;13.096;2023-04-10T14:02:31;12.50;;;8.30;;
3563;SDS011;1796;52.388;13.096;2023-04-10T14:04:58;11.20;;;9.83;;
3563;SDS011;1796;52.388;13.096;2023-04-10T14:07:27;11.40;;;9.53;;
3563;SDS011;1796;52.388;13.096;2023-04-10T14:09:53;12.37;;;9.70;;
3563;SDS011;1796;52.388;13.096;2023-04-10T14:12:21;11.37;;;10.17;;
3563;SDS011;1796;52.388;13.096;2023-04-10T14:14:48;12.60;;;9.57;;
3563;SDS011;1796;52.388;13.096;2023-04-10T14:17:15;11.40;;;10.10;;
3563;SDS011;1796;52.388;13.096;2023-04-10T14:19:42;13.10;;;9.30;;
3563;SDS011;1796;52.388;13.096;2023-04-10T14:22:10;20.83;;;9.40;;
3563;SDS011;1796;52.388;13.096;2023-04-10T14:24:38;13.93;;;11.03;;
3563;SDS011;1796;52.388;13.096;2023-04-10T14:27:05;14.97;;;10.10;;
3563;SDS011;1796;52.388;13.096;2023-04-10T14:29:32;14.47;;;11.23;;
3563;SDS011;1796;52.388;13.096;2023-04-10T14:31:59;12.87;;;10.17;;
3563;SDS011;1796;52.388;13.096;2023-04-10T14:34:25;13.90;;;9.00;;
3563;SDS011;1796;52.388;13.096;2023-04-10T14:36:52;16.43;;;9.53;;
3563;SDS011;1796;52.388;13.096;2023-04-10T14:39:20;18.30;;;12.70;;
3563;SDS011;1796;52.388;13.096;2023-04-10T14:41:50;24.33;;;14.33;;
3563;SDS011;1796;52.388;13.096;2023-04-10T14:44:17;22.43;;;12.43;;
3563;SDS011;1796;52.388;13.096;2023-04-10T14:46:43;12.67;;;8.50;;
3563;SDS011;1796;52.388;13.096;2023-04-10T14:49:11;12.33;;;9.63;;
3563;SDS011;1796;52.388;13.096;2023-04-10T14:51:41;12.50;;;9.37;;
3563;SDS011;1796;52.388;13.096;2023-04-10T14:54:08;11.50;;;9.40;;